Station: Troughton Island  

  Atmospheric Gas Attenuation - ITU Rec 676-11   ----------------- dB/100km -----------------
Date Time Temp RH % AH g/m3 Dew Point Wind Direction Speed kph Gust kph Barometer mB Rainfall Since 9am 24GHz 47GHz 76GHz 122GHz 134GHz 241GHz
01/09 21:50 25 83 19.11 21.9 9 9 1016.9 0 41.2 40.4 77.9 206.2 227.0 788.6
01/09 21:40 25 82 18.88 21.7 9 9 1016.9 0 40.7 40.0 76.9 203.3 223.5 776.2
01/09 21:30 25.3 82 19.2 22 9 11 1016.8 0 41.3 40.4 78.1 206.5 227.5 790.3
01/09 21:20 24.8 82 18.66 21.5 11 11 1016.7 0 40.2 39.6 76.0 201.0 220.7 766.4
01/09 21:10 24.8 82 18.66 21.5 11 11 1016.6 0 40.2 39.6 76.0 201.0 220.6 766.3
01/09 21:00 25 82 18.88 21.7 9 11 1016.5 0 40.7 40.0 76.8 203.2 223.4 776.0
01/09 20:50 25 81 18.65 21.5 11 11 1016.5 0 40.2 39.5 75.7 200.3 219.9 763.7
01/09 20:40 24.9 80 18.31 21.2 11 11 1016.4 0 39.5 38.9 74.2 196.3 215.0 746.6
01/09 20:30 25.1 78 18.06 21 11 13 1016.3 0 38.9 38.4 72.9 192.7 210.6 731.4
01/09 20:20 25.6 75 17.86 20.8 9 11 1016.2 0 38.5 37.8 71.5 189.0 206.2 716.2
01/09 20:10 26.2 73 17.97 21 11 13 1016 0 38.6 37.7 71.4 188.8 206.2 716.1
01/09 20:00 26.3 73 18.07 21.1 11 13 1015.8 0 38.8 37.8 71.8 189.8 207.3 720.2
01/09 19:50 26.3 72 17.82 20.8 11 13 1015.7 0 38.3 37.4 70.6 186.7 203.6 707.3
01/09 19:40 26.5 73 18.27 21.3 13 15 1015.6 0 39.2 38.1 72.5 191.6 209.7 728.6
01/09 19:30 26.5 71 17.77 20.8 13 15 1015.5 0 38.2 37.2 70.2 185.6 202.3 702.8
01/09 19:20 26.6 70 17.62 20.7 13 15 1015.4 0 37.9 36.9 69.4 183.6 199.9 694.2
01/09 19:10 26.7 69 17.47 20.5 15 19 1015.4 0 37.5 36.5 68.7 181.6 197.4 685.7
01/09 19:00 26.7 68 17.21 20.3 15 20 1015.3 0 37.0 36.1 67.5 178.5 193.6 672.6
01/09 18:50 27 67 17.24 20.3 17 20 1015.3 0 37.0 36.0 67.4 178.2 193.3 671.5
01/09 18:40 27.3 68 17.79 20.9 19 22 1015.3 0 38.2 36.9 69.6 183.9 200.5 696.4
01/09 18:30 27.3 67 17.53 20.6 17 20 1015.2 0 37.6 36.4 68.4 180.8 196.7 683.3
01/09 18:20 27.4 66 17.37 20.5 17 19 1015.2 0 37.3 36.1 67.6 178.7 194.1 674.4
01/09 18:10 27.5 66 17.46 20.6 13 17 1015.1 0 37.4 36.2 67.9 179.5 195.2 678.0
01/09 18:00 28 62 16.86 20 13 17 1015 0 36.1 34.9 64.9 171.5 185.4 644.1
01/09 17:50 28.1 62 16.95 20.1 13 19 1014.8 0 36.3 35.0 65.2 172.2 186.4 647.5
01/09 17:40 28.3 63 17.42 20.6 13 19 1014.8 0 37.3 35.8 67.0 177.2 192.5 668.9
01/09 17:30 28.3 62 17.14 20.3 15 19 1014.6 0 36.7 35.3 65.8 173.9 188.5 655.0
01/09 17:20 28.8 60 17.05 20.3 15 19 1014.5 0 36.5 34.9 65.0 171.8 186.0 646.4
01/09 17:10 28.6 64 17.99 21.1 17 20 1014.5 0 38.5 36.6 69.2 183.0 199.8 694.3
01/09 17:00 28.8 60 17.05 20.3 17 20 1014.5 0 36.5 34.9 65.0 171.8 186.0 646.4
01/09 16:50 28.3 61 16.87 20.1 17 20 1014.4 0 36.1 34.8 64.6 170.8 184.7 641.8
01/09 16:40 29.1 57 16.46 19.7 17 20 1014.4 0 35.2 33.8 62.2 164.5 177.2 615.6
01/09 16:30 29.1 61 17.62 20.8 17 20 1014.4 0 37.6 35.8 67.2 177.6 193.3 671.6
01/09 16:20 28.4 61 16.96 20.2 15 20 1014.4 0 36.3 34.9 64.9 171.6 185.7 645.3
01/09 16:10 28.8 62 17.62 20.8 17 20 1014.5 0 37.7 35.9 67.4 178.3 194.0 674.2
01/09 16:00 29.3 59 17.23 20.5 17 20 1014.5 0 36.8 35.0 65.3 172.7 187.3 650.9
01/09 15:50 28.5 60 16.77 20 17 20 1014.6 0 35.9 34.5 64.1 169.3 182.9 635.4
01/09 15:40 28.9 60 17.14 20.4 17 26 1014.7 0 36.6 35.0 65.3 172.6 187.1 650.0
01/09 15:30 29.3 59 17.23 20.5 15 20 1014.8 0 36.8 35.0 65.3 172.8 187.4 651.1
01/09 15:20 29 62 17.81 21 17 22 1014.9 0 38.0 36.1 68.1 180.1 196.3 682.0
01/09 15:10 29.4 61 17.91 21.1 15 20 1015 0 38.2 36.2 68.2 180.3 196.7 683.5
01/09 15:00 29.8 59 17.7 20.9 17 20 1015.2 0 37.7 35.6 66.9 177.0 192.7 669.8
01/09 14:50 30.2 60 18.4 21.6 17 20 1015.3 0 39.2 36.7 69.6 184.1 201.5 700.5
01/09 14:40 29.4 60 17.62 20.8 15 19 1015.5 0 37.6 35.7 67.0 177.1 192.6 669.5
01/09 14:30 29.8 56 16.8 20.1 13 17 1015.7 0 35.8 34.1 63.2 167.0 180.4 626.8
01/09 14:20 29.7 48 14.32 17.5 15 20 1015.9 0 30.7 30.1 53.3 140.6 147.9 513.4
01/09 14:10 29.1 60 17.33 20.5 15 20 1016.1 0 37.0 35.3 66.0 174.5 189.4 658.2
01/09 14:00 29.2 61 17.72 20.9 15 20 1016.2 0 37.8 36.0 67.6 178.8 194.7 676.5
01/09 13:50 28.4 63 17.51 20.7 15 20 1016.4 0 37.5 35.9 67.4 178.2 193.7 673.2
01/09 13:40 28.7 60 16.96 20.2 15 20 1016.7 0 36.3 34.9 64.8 171.3 185.3 643.9
01/09 13:30 27.7 65 17.39 20.5 20 26 1016.9 0 37.3 36.0 67.5 178.5 193.9 673.6
01/09 13:20 28.4 64 17.79 20.9 17 20 1017.1 0 38.0 36.5 68.7 181.6 197.8 687.4
01/09 13:10 28 66 17.95 21.1 20 24 1017.3 0 38.4 36.9 69.7 184.4 201.2 699.1
01/09 13:00 28.6 62 17.43 20.6 20 26 1017.6 0 37.3 35.8 67.0 177.0 192.3 668.1
01/09 12:50 28.8 65 18.47 21.6 19 24 1017.8 0 39.4 37.5 71.3 188.7 206.6 718.1
01/09 12:40 29.2 62 18.01 21.2 19 24 1018 0 38.4 36.5 69.0 182.4 199.0 691.6
01/09 12:30 28.8 62 17.62 20.8 19 24 1018 0 37.6 36.0 67.6 178.8 194.5 675.9
01/09 12:20 28.6 63 17.71 20.9 17 22 1018.2 0 37.8 36.3 68.2 180.3 196.3 682.2
01/09 12:10 29.5 61 18.01 21.2 19 26 1018.4 0 38.4 36.4 68.7 181.7 198.3 689.1
01/09 12:00 29.5 63 18.6 21.7 15 20 1018.4 0 39.6 37.5 71.3 188.6 206.7 718.4
01/09 11:50 28.7 62 17.52 20.7 15 19 1018.5 0 37.4 35.9 67.3 177.9 193.4 672.1
01/09 11:40 28.7 61 17.24 20.4 17 22 1018.6 0 36.8 35.4 66.1 174.7 189.5 658.4
01/09 11:30 28.9 62 17.71 20.9 19 20 1018.8 0 37.8 36.2 68.0 179.7 195.6 679.8
01/09 11:20 28.8 63 17.9 21.1 9 13 1018.7 0 38.2 36.5 68.9 182.1 198.6 690.1
01/09 11:10 28.7 64 18.09 21.2 9 13 1018.7 0 38.6 36.9 69.8 184.6 201.6 700.4
01/09 11:00 29 63 18.1 21.2 9 13 1018.9 0 38.6 36.8 69.6 184.0 200.9 698.3
01/09 10:50 28.7 62 17.52 20.7 9 13 1019 0 37.4 35.9 67.3 178.0 193.5 672.3
01/09 10:40 28.9 62 17.71 20.9 9 11 1019.1 0 37.8 36.2 68.0 179.8 195.7 680.0
01/09 10:30 28.5 63 17.61 20.8 9 13 1019.2 0 37.6 36.2 67.9 179.5 195.3 678.6
01/09 10:20 28.6 63 17.71 20.9 11 15 1019.3 0 37.8 36.3 68.3 180.5 196.5 682.7
01/09 10:10 28.6 65 18.27 21.4 11 15 1019.3 0 39.0 37.3 70.7 187.0 204.5 710.7
01/09 10:00 28.6 64 17.99 21.1 11 15 1019.3 0 38.4 36.8 69.5 183.7 200.5 696.7
01/09 09:50 28.4 63 17.51 20.7 9 11 1019.1 0 37.4 36.0 67.6 178.6 194.1 674.5
01/09 09:40 28.4 61 16.96 20.2 7 11 1019 0 36.3 35.1 65.2 172.3 186.4 647.4
01/09 09:30 28.5 66 18.45 21.5 7 11 1018.9 0 39.4 37.7 71.6 189.3 207.3 720.5
01/09 09:20 27.5 60 15.88 19 7 11 1018.8 0 34.1 33.6 61.3 162.0 173.4 602.3
01/09 09:10 27.4 66 17.37 20.5 6 13 1018.7 0 37.2 36.2 67.8 179.2 194.6 676.1
01/09 09:00 27.9 68 18.39 21.4 4 7 1018.7 0 39.3 37.8 71.9 190.1 208.1 723.0
01/09 08:50 26.9 70 17.92 21 6 7 1018.6 0 38.4 37.4 70.7 186.9 203.9 708.3
01/09 08:40 26.5 71 17.77 20.8 0 6 1018.5 0 38.2 37.3 70.4 186.1 202.8 704.3
01/09 08:30 26.1 75 18.36 21.3 0 0 1018.5 0 39.5 38.6 73.4 194.2 212.6 738.6
01/09 08:20 25.2 78 18.16 21.1 0 0 1018.4 0 39.1 38.6 73.4 194.0 212.1 736.8
01/09 08:10 24.9 82 18.77 21.6 2 6 1018.3 0 40.4 39.9 76.5 202.4 222.3 772.1
01/09 08:00 24.2 88 19.36 22.1 6 7 1018.1 0 41.8 41.3 80.1 211.8 233.6 811.4
01/09 07:50 23.5 88 18.61 21.4 6 6 1018 0 40.3 40.2 77.2 204.1 224.0 777.6
01/09 07:40 23.2 88 18.29 21.1 6 7 1018 0 39.6 39.8 75.9 200.8 219.8 763.3
01/09 07:30 23.2 88 18.29 21.1 6 7 1018 0 39.6 39.8 75.9 200.8 219.8 763.3
01/09 07:20 23 87 17.88 20.7 6 7 1017.9 0 38.7 39.1 74.2 196.1 214.0 743.1
01/09 07:10 22.9 88 17.98 20.8 6 6 1017.9 0 39.0 39.3 74.8 197.6 215.9 749.5
01/09 07:00 22.9 87 17.78 20.6 4 6 1017.7 0 38.5 38.9 73.8 195.1 212.7 738.6
01/09 06:50 23 87 17.88 20.7 4 6 1017.6 0 38.8 39.0 74.2 196.1 214.0 742.9
01/09 06:40 23.1 87 17.98 20.8 4 6 1017.5 0 39.0 39.2 74.5 197.0 215.2 747.3
01/09 06:30 23.5 87 18.4 21.2 6 7 1017.4 0 39.8 39.8 76.1 201.3 220.6 765.9
01/09 06:20 23.3 86 17.98 20.8 6 7 1017.3 0 38.9 39.1 74.3 196.5 214.6 745.2
01/09 06:10 23.5 87 18.4 21.2 6 7 1017.2 0 39.8 39.8 76.1 201.3 220.6 765.8
01/09 06:00 23.5 87 18.4 21.2 2 7 1017.1 0 39.8 39.8 76.1 201.2 220.5 765.8
01/09 05:50 23.7 87 18.61 21.4 0 0 1017 0 40.2 40.1 76.9 203.4 223.2 775.1
01/09 05:40 23.8 86 18.5 21.3 0 0 1017 0 40.0 39.8 76.3 201.7 221.2 768.1
01/09 05:30 23.7 87 18.61 21.4 0 0 1016.9 0 40.2 40.1 76.9 203.3 223.2 775.0
01/09 05:20 23.9 87 18.82 21.6 0 0 1016.9 0 40.7 40.4 77.7 205.5 225.9 784.4

Last Refresh: 01-Sep-2026 22:07:26

Bureau of Meteorology